sensor_id;sensor_type;location;lat;lon;timestamp;P1;durP1;ratioP1;P2;durP2;ratioP2
49412;SDS011;35493;50.276;9.372;2023-06-22T00:02:17;8.93;;;7.20;;
49412;SDS011;35493;50.276;9.372;2023-06-22T00:04:45;8.27;;;6.95;;
49412;SDS011;35493;50.276;9.372;2023-06-22T00:07:12;9.70;;;7.50;;
49412;SDS011;35493;50.276;9.372;2023-06-22T00:09:39;8.25;;;7.35;;
49412;SDS011;35493;50.276;9.372;2023-06-22T00:12:06;8.93;;;7.70;;
49412;SDS011;35493;50.276;9.372;2023-06-22T00:14:33;8.63;;;7.30;;
49412;SDS011;35493;50.276;9.372;2023-06-22T00:17:00;7.63;;;6.82;;
49412;SDS011;35493;50.276;9.372;2023-06-22T00:19:27;9.77;;;7.40;;
49412;SDS011;35493;50.276;9.372;2023-06-22T00:21:55;7.60;;;6.80;;
49412;SDS011;35493;50.276;9.372;2023-06-22T00:24:25;9.02;;;7.85;;
49412;SDS011;35493;50.276;9.372;2023-06-22T00:26:52;8.52;;;7.20;;
49412;SDS011;35493;50.276;9.372;2023-06-22T00:29:19;8.50;;;7.47;;
49412;SDS011;35493;50.276;9.372;2023-06-22T00:31:46;10.13;;;7.50;;
49412;SDS011;35493;50.276;9.372;2023-06-22T00:34:13;9.07;;;7.68;;
49412;SDS011;35493;50.276;9.372;2023-06-22T00:36:41;8.57;;;7.68;;
49412;SDS011;35493;50.276;9.372;2023-06-22T00:39:09;11.75;;;8.60;;
49412;SDS011;35493;50.276;9.372;2023-06-22T00:41:36;9.68;;;8.20;;
49412;SDS011;35493;50.276;9.372;2023-06-22T00:44:03;9.38;;;8.20;;
49412;SDS011;35493;50.276;9.372;2023-06-22T00:46:31;10.23;;;8.40;;
49412;SDS011;35493;50.276;9.372;2023-06-22T00:48:58;12.07;;;9.18;;
49412;SDS011;35493;50.276;9.372;2023-06-22T00:51:27;9.43;;;8.50;;
49412;SDS011;35493;50.276;9.372;2023-06-22T00:53:54;9.90;;;8.13;;
49412;SDS011;35493;50.276;9.372;2023-06-22T00:56:22;11.52;;;9.15;;
49412;SDS011;35493;50.276;9.372;2023-06-22T00:58:50;9.35;;;8.15;;
49412;SDS011;35493;50.276;9.372;2023-06-22T01:01:19;9.00;;;7.88;;
49412;SDS011;35493;50.276;9.372;2023-06-22T01:03:48;9.50;;;7.93;;
49412;SDS011;35493;50.276;9.372;2023-06-22T01:06:19;9.35;;;8.35;;
49412;SDS011;35493;50.276;9.372;2023-06-22T01:08:55;8.77;;;7.88;;
49412;SDS011;35493;50.276;9.372;2023-06-22T01:11:34;9.25;;;7.78;;
49412;SDS011;35493;50.276;9.372;2023-06-22T01:14:06;8.88;;;7.78;;
49412;SDS011;35493;50.276;9.372;2023-06-22T01:16:38;9.13;;;8.23;;
49412;SDS011;35493;50.276;9.372;2023-06-22T01:19:10;9.98;;;8.20;;
49412;SDS011;35493;50.276;9.372;2023-06-22T01:21:48;9.27;;;7.68;;
49412;SDS011;35493;50.276;9.372;2023-06-22T01:26:54;8.65;;;7.75;;
49412;SDS011;35493;50.276;9.372;2023-06-22T01:29:28;9.45;;;8.45;;
49412;SDS011;35493;50.276;9.372;2023-06-22T01:31:57;10.60;;;8.70;;
49412;SDS011;35493;50.276;9.372;2023-06-22T01:34:27;9.40;;;8.10;;
49412;SDS011;35493;50.276;9.372;2023-06-22T01:39:24;10.30;;;8.43;;
49412;SDS011;35493;50.276;9.372;2023-06-22T01:41:52;9.45;;;8.45;;
49412;SDS011;35493;50.276;9.372;2023-06-22T01:44:20;9.57;;;8.57;;
49412;SDS011;35493;50.276;9.372;2023-06-22T01:46:50;9.15;;;8.00;;
49412;SDS011;35493;50.276;9.372;2023-06-22T01:49:18;11.23;;;8.25;;
49412;SDS011;35493;50.276;9.372;2023-06-22T01:51:47;9.85;;;8.85;;
49412;SDS011;35493;50.276;9.372;2023-06-22T01:54:14;10.38;;;9.13;;
49412;SDS011;35493;50.276;9.372;2023-06-22T01:56:41;9.88;;;8.88;;
49412;SDS011;35493;50.276;9.372;2023-06-22T01:59:09;9.73;;;8.68;;
49412;SDS011;35493;50.276;9.372;2023-06-22T02:01:42;9.45;;;8.45;;
49412;SDS011;35493;50.276;9.372;2023-06-22T02:04:18;10.05;;;8.98;;
49412;SDS011;35493;50.276;9.372;2023-06-22T02:06:48;10.63;;;7.95;;
49412;SDS011;35493;50.276;9.372;2023-06-22T02:09:21;12.80;;;8.73;;
49412;SDS011;35493;50.276;9.372;2023-06-22T02:11:53;9.48;;;8.10;;
49412;SDS011;35493;50.276;9.372;2023-06-22T02:14:22;9.60;;;8.60;;
49412;SDS011;35493;50.276;9.372;2023-06-22T02:16:50;9.55;;;8.55;;
49412;SDS011;35493;50.276;9.372;2023-06-22T02:19:23;10.48;;;8.90;;
49412;SDS011;35493;50.276;9.372;2023-06-22T02:21:51;10.50;;;9.13;;
49412;SDS011;35493;50.276;9.372;2023-06-22T02:24:19;9.68;;;8.68;;
49412;SDS011;35493;50.276;9.372;2023-06-22T02:26:49;10.48;;;9.07;;
49412;SDS011;35493;50.276;9.372;2023-06-22T02:29:15;9.90;;;8.48;;
49412;SDS011;35493;50.276;9.372;2023-06-22T02:31:42;11.52;;;8.68;;
49412;SDS011;35493;50.276;9.372;2023-06-22T02:34:11;9.50;;;8.55;;
49412;SDS011;35493;50.276;9.372;2023-06-22T02:36:45;9.77;;;8.77;;
49412;SDS011;35493;50.276;9.372;2023-06-22T02:39:16;11.05;;;9.07;;
49412;SDS011;35493;50.276;9.372;2023-06-22T02:41:45;10.75;;;9.65;;
49412;SDS011;35493;50.276;9.372;2023-06-22T02:44:12;9.98;;;8.77;;
49412;SDS011;35493;50.276;9.372;2023-06-22T02:46:39;10.45;;;9.25;;
49412;SDS011;35493;50.276;9.372;2023-06-22T02:49:06;10.65;;;8.93;;
49412;SDS011;35493;50.276;9.372;2023-06-22T02:51:34;10.75;;;9.35;;
49412;SDS011;35493;50.276;9.372;2023-06-22T02:54:03;11.45;;;10.25;;
49412;SDS011;35493;50.276;9.372;2023-06-22T02:56:30;10.85;;;9.73;;
49412;SDS011;35493;50.276;9.372;2023-06-22T02:58:59;10.68;;;9.60;;
49412;SDS011;35493;50.276;9.372;2023-06-22T03:01:30;10.93;;;9.82;;
49412;SDS011;35493;50.276;9.372;2023-06-22T03:04:03;10.63;;;9.48;;
49412;SDS011;35493;50.276;9.372;2023-06-22T03:06:30;10.18;;;8.63;;
49412;SDS011;35493;50.276;9.372;2023-06-22T03:08:58;10.07;;;8.98;;
49412;SDS011;35493;50.276;9.372;2023-06-22T03:11:29;10.48;;;9.40;;
49412;SDS011;35493;50.276;9.372;2023-06-22T03:13:57;10.65;;;8.77;;
49412;SDS011;35493;50.276;9.372;2023-06-22T03:16:24;10.27;;;9.07;;
49412;SDS011;35493;50.276;9.372;2023-06-22T03:18:51;10.48;;;9.00;;
49412;SDS011;35493;50.276;9.372;2023-06-22T03:21:19;10.77;;;9.30;;
49412;SDS011;35493;50.276;9.372;2023-06-22T03:23:46;10.10;;;8.80;;
49412;SDS011;35493;50.276;9.372;2023-06-22T03:26:13;10.10;;;8.77;;
49412;SDS011;35493;50.276;9.372;2023-06-22T03:28:43;11.48;;;9.75;;
49412;SDS011;35493;50.276;9.372;2023-06-22T03:31:10;11.43;;;9.90;;
49412;SDS011;35493;50.276;9.372;2023-06-22T03:33:39;12.57;;;9.60;;
49412;SDS011;35493;50.276;9.372;2023-06-22T03:36:06;9.75;;;8.77;;
49412;SDS011;35493;50.276;9.372;2023-06-22T03:38:33;9.38;;;8.48;;
49412;SDS011;35493;50.276;9.372;2023-06-22T03:41:00;10.40;;;9.27;;
49412;SDS011;35493;50.276;9.372;2023-06-22T03:43:29;10.45;;;9.40;;
49412;SDS011;35493;50.276;9.372;2023-06-22T03:45:57;11.45;;;10.27;;
49412;SDS011;35493;50.276;9.372;2023-06-22T03:48:24;11.50;;;9.52;;
49412;SDS011;35493;50.276;9.372;2023-06-22T03:50:51;10.25;;;9.20;;
49412;SDS011;35493;50.276;9.372;2023-06-22T03:53:18;10.45;;;9.38;;
49412;SDS011;35493;50.276;9.372;2023-06-22T03:55:47;10.23;;;9.10;;
49412;SDS011;35493;50.276;9.372;2023-06-22T03:58:15;10.35;;;8.93;;
49412;SDS011;35493;50.276;9.372;2023-06-22T04:00:44;10.30;;;9.30;;
49412;SDS011;35493;50.276;9.372;2023-06-22T04:03:13;10.05;;;9.05;;
49412;SDS011;35493;50.276;9.372;2023-06-22T04:05:40;9.98;;;8.57;;
49412;SDS011;35493;50.276;9.372;2023-06-22T04:08:08;9.98;;;8.93;;
49412;SDS011;35493;50.276;9.372;2023-06-22T04:10:34;10.00;;;9.00;;
49412;SDS011;35493;50.276;9.372;2023-06-22T04:13:01;10.52;;;9.43;;
49412;SDS011;35493;50.276;9.372;2023-06-22T04:15:28;12.20;;;9.80;;
49412;SDS011;35493;50.276;9.372;2023-06-22T04:17:55;10.13;;;8.95;;
49412;SDS011;35493;50.276;9.372;2023-06-22T04:20:24;11.80;;;8.48;;
49412;SDS011;35493;50.276;9.372;2023-06-22T04:22:52;11.23;;;9.55;;
49412;SDS011;35493;50.276;9.372;2023-06-22T04:25:19;10.48;;;9.32;;
49412;SDS011;35493;50.276;9.372;2023-06-22T04:27:47;10.57;;;9.45;;
49412;SDS011;35493;50.276;9.372;2023-06-22T04:30:14;10.15;;;9.00;;
49412;SDS011;35493;50.276;9.372;2023-06-22T04:32:41;10.93;;;9.25;;
49412;SDS011;35493;50.276;9.372;2023-06-22T04:35:09;11.40;;;9.73;;
49412;SDS011;35493;50.276;9.372;2023-06-22T04:37:37;11.30;;;9.50;;
49412;SDS011;35493;50.276;9.372;2023-06-22T04:40:05;10.73;;;9.68;;
49412;SDS011;35493;50.276;9.372;2023-06-22T04:42:33;10.75;;;9.32;;
49412;SDS011;35493;50.276;9.372;2023-06-22T04:45:00;10.25;;;9.15;;
49412;SDS011;35493;50.276;9.372;2023-06-22T04:47:27;10.90;;;9.25;;
49412;SDS011;35493;50.276;9.372;2023-06-22T04:49:54;9.68;;;8.68;;
49412;SDS011;35493;50.276;9.372;2023-06-22T04:52:21;10.35;;;9.25;;
49412;SDS011;35493;50.276;9.372;2023-06-22T04:54:51;10.00;;;8.90;;
49412;SDS011;35493;50.276;9.372;2023-06-22T04:57:20;12.48;;;9.90;;
49412;SDS011;35493;50.276;9.372;2023-06-22T04:59:57;11.27;;;9.20;;
49412;SDS011;35493;50.276;9.372;2023-06-22T05:02:32;10.30;;;9.13;;
49412;SDS011;35493;50.276;9.372;2023-06-22T05:04:59;12.02;;;9.38;;
49412;SDS011;35493;50.276;9.372;2023-06-22T05:07:26;10.20;;;9.07;;
49412;SDS011;35493;50.276;9.372;2023-06-22T05:09:54;10.93;;;8.93;;
49412;SDS011;35493;50.276;9.372;2023-06-22T05:12:21;10.63;;;9.20;;
49412;SDS011;35493;50.276;9.372;2023-06-22T05:14:48;10.50;;;9.05;;
49412;SDS011;35493;50.276;9.372;2023-06-22T05:17:15;10.05;;;8.93;;
49412;SDS011;35493;50.276;9.372;2023-06-22T05:19:44;11.10;;;9.85;;
49412;SDS011;35493;50.276;9.372;2023-06-22T05:22:14;10.85;;;9.75;;
49412;SDS011;35493;50.276;9.372;2023-06-22T05:24:41;10.63;;;9.38;;
49412;SDS011;35493;50.276;9.372;2023-06-22T05:27:10;10.20;;;9.20;;
49412;SDS011;35493;50.276;9.372;2023-06-22T05:29:37;10.73;;;9.27;;
49412;SDS011;35493;50.276;9.372;2023-06-22T05:32:04;10.73;;;9.55;;
49412;SDS011;35493;50.276;9.372;2023-06-22T05:34:31;10.88;;;9.77;;
49412;SDS011;35493;50.276;9.372;2023-06-22T05:36:58;9.88;;;8.85;;
49412;SDS011;35493;50.276;9.372;2023-06-22T05:39:25;10.30;;;8.95;;
49412;SDS011;35493;50.276;9.372;2023-06-22T05:41:52;11.07;;;9.30;;
49412;SDS011;35493;50.276;9.372;2023-06-22T05:44:20;11.93;;;10.13;;
49412;SDS011;35493;50.276;9.372;2023-06-22T05:46:50;10.60;;;9.48;;
49412;SDS011;35493;50.276;9.372;2023-06-22T05:49:17;11.15;;;9.98;;
49412;SDS011;35493;50.276;9.372;2023-06-22T05:51:44;10.32;;;9.23;;
49412;SDS011;35493;50.276;9.372;2023-06-22T05:54:10;10.98;;;9.55;;
49412;SDS011;35493;50.276;9.372;2023-06-22T05:56:38;12.55;;;11.23;;
49412;SDS011;35493;50.276;9.372;2023-06-22T05:59:05;11.85;;;10.65;;
49412;SDS011;35493;50.276;9.372;2023-06-22T06:01:33;11.07;;;9.98;;
49412;SDS011;35493;50.276;9.372;2023-06-22T06:04:01;10.90;;;9.75;;
49412;SDS011;35493;50.276;9.372;2023-06-22T06:06:29;12.60;;;11.30;;
49412;SDS011;35493;50.276;9.372;2023-06-22T06:08:56;13.27;;;11.48;;
49412;SDS011;35493;50.276;9.372;2023-06-22T06:11:23;12.52;;;11.23;;
49412;SDS011;35493;50.276;9.372;2023-06-22T06:13:51;12.13;;;10.90;;
49412;SDS011;35493;50.276;9.372;2023-06-22T06:16:18;12.85;;;11.52;;
49412;SDS011;35493;50.276;9.372;2023-06-22T06:18:46;12.13;;;10.93;;
49412;SDS011;35493;50.276;9.372;2023-06-22T06:21:15;12.40;;;11.00;;
49412;SDS011;35493;50.276;9.372;2023-06-22T06:23:42;11.85;;;10.57;;
49412;SDS011;35493;50.276;9.372;2023-06-22T06:26:09;12.25;;;10.95;;
49412;SDS011;35493;50.276;9.372;2023-06-22T06:28:36;12.48;;;11.18;;
49412;SDS011;35493;50.276;9.372;2023-06-22T06:31:03;12.15;;;10.75;;
49412;SDS011;35493;50.276;9.372;2023-06-22T06:33:32;11.25;;;10.05;;
49412;SDS011;35493;50.276;9.372;2023-06-22T06:36:00;11.80;;;10.60;;
49412;SDS011;35493;50.276;9.372;2023-06-22T06:38:28;11.50;;;9.85;;
49412;SDS011;35493;50.276;9.372;2023-06-22T06:40:55;13.40;;;10.05;;
49412;SDS011;35493;50.276;9.372;2023-06-22T06:43:22;11.55;;;9.88;;
49412;SDS011;35493;50.276;9.372;2023-06-22T06:45:49;10.90;;;9.40;;
49412;SDS011;35493;50.276;9.372;2023-06-22T06:48:16;11.38;;;10.18;;
49412;SDS011;35493;50.276;9.372;2023-06-22T06:50:43;11.38;;;10.18;;
49412;SDS011;35493;50.276;9.372;2023-06-22T06:53:11;10.88;;;9.77;;
49412;SDS011;35493;50.276;9.372;2023-06-22T06:55:39;13.40;;;9.38;;
49412;SDS011;35493;50.276;9.372;2023-06-22T06:58:06;11.15;;;10.05;;
49412;SDS011;35493;50.276;9.372;2023-06-22T07:00:34;11.63;;;9.52;;
49412;SDS011;35493;50.276;9.372;2023-06-22T07:03:02;10.70;;;9.60;;
49412;SDS011;35493;50.276;9.372;2023-06-22T07:05:29;11.48;;;9.43;;
49412;SDS011;35493;50.276;9.372;2023-06-22T07:07:56;10.88;;;9.77;;
49412;SDS011;35493;50.276;9.372;2023-06-22T07:10:24;11.18;;;10.07;;
49412;SDS011;35493;50.276;9.372;2023-06-22T07:12:51;11.45;;;10.20;;
49412;SDS011;35493;50.276;9.372;2023-06-22T07:15:18;11.25;;;9.77;;
49412;SDS011;35493;50.276;9.372;2023-06-22T07:17:45;10.02;;;8.95;;
49412;SDS011;35493;50.276;9.372;2023-06-22T07:20:12;11.40;;;10.20;;
49412;SDS011;35493;50.276;9.372;2023-06-22T07:22:39;11.13;;;10.00;;
49412;SDS011;35493;50.276;9.372;2023-06-22T07:25:07;11.00;;;9.90;;
49412;SDS011;35493;50.276;9.372;2023-06-22T07:27:37;11.00;;;9.90;;
49412;SDS011;35493;50.276;9.372;2023-06-22T07:30:08;10.82;;;9.73;;
49412;SDS011;35493;50.276;9.372;2023-06-22T07:32:36;10.95;;;9.77;;
49412;SDS011;35493;50.276;9.372;2023-06-22T07:35:03;10.25;;;9.25;;
49412;SDS011;35493;50.276;9.372;2023-06-22T07:37:30;11.07;;;9.68;;
49412;SDS011;35493;50.276;9.372;2023-06-22T07:39:58;10.60;;;9.60;;
49412;SDS011;35493;50.276;9.372;2023-06-22T07:42:25;10.38;;;9.38;;
49412;SDS011;35493;50.276;9.372;2023-06-22T07:44:55;10.25;;;9.13;;
49412;SDS011;35493;50.276;9.372;2023-06-22T07:47:22;10.18;;;9.13;;
49412;SDS011;35493;50.276;9.372;2023-06-22T07:49:50;9.52;;;8.63;;
49412;SDS011;35493;50.276;9.372;2023-06-22T07:52:19;9.98;;;8.98;;
49412;SDS011;35493;50.276;9.372;2023-06-22T07:54:47;10.48;;;9.38;;
49412;SDS011;35493;50.276;9.372;2023-06-22T07:57:14;9.95;;;8.45;;
49412;SDS011;35493;50.276;9.372;2023-06-22T07:59:40;10.55;;;9.35;;
49412;SDS011;35493;50.276;9.372;2023-06-22T08:02:09;10.07;;;9.07;;
49412;SDS011;35493;50.276;9.372;2023-06-22T08:04:36;9.57;;;8.57;;
49412;SDS011;35493;50.276;9.372;2023-06-22T08:07:03;10.23;;;8.88;;
49412;SDS011;35493;50.276;9.372;2023-06-22T08:09:31;9.82;;;8.82;;
49412;SDS011;35493;50.276;9.372;2023-06-22T08:11:59;11.23;;;9.30;;
49412;SDS011;35493;50.276;9.372;2023-06-22T08:14:26;9.32;;;8.38;;
49412;SDS011;35493;50.276;9.372;2023-06-22T08:16:53;10.63;;;8.80;;
49412;SDS011;35493;50.276;9.372;2023-06-22T08:19:21;9.18;;;8.27;;
49412;SDS011;35493;50.276;9.372;2023-06-22T08:21:48;9.35;;;8.07;;
49412;SDS011;35493;50.276;9.372;2023-06-22T08:24:15;8.98;;;8.07;;
49412;SDS011;35493;50.276;9.372;2023-06-22T08:26:42;9.15;;;8.25;;
49412;SDS011;35493;50.276;9.372;2023-06-22T08:29:12;8.25;;;7.45;;
49412;SDS011;35493;50.276;9.372;2023-06-22T08:31:44;8.18;;;7.30;;
49412;SDS011;35493;50.276;9.372;2023-06-22T08:34:11;9.02;;;7.43;;
49412;SDS011;35493;50.276;9.372;2023-06-22T08:36:39;8.10;;;7.30;;
49412;SDS011;35493;50.276;9.372;2023-06-22T08:39:10;8.80;;;7.90;;
49412;SDS011;35493;50.276;9.372;2023-06-22T08:41:37;9.63;;;7.57;;
49412;SDS011;35493;50.276;9.372;2023-06-22T08:44:04;8.75;;;7.85;;
49412;SDS011;35493;50.276;9.372;2023-06-22T08:46:31;9.75;;;7.80;;
49412;SDS011;35493;50.276;9.372;2023-06-22T08:48:58;8.13;;;7.32;;
49412;SDS011;35493;50.276;9.372;2023-06-22T08:51:26;8.18;;;7.38;;
49412;SDS011;35493;50.276;9.372;2023-06-22T08:53:57;8.55;;;7.65;;
49412;SDS011;35493;50.276;9.372;2023-06-22T08:56:24;8.68;;;7.65;;
49412;SDS011;35493;50.276;9.372;2023-06-22T08:58:51;7.60;;;6.80;;
49412;SDS011;35493;50.276;9.372;2023-06-22T09:01:18;8.00;;;7.20;;
49412;SDS011;35493;50.276;9.372;2023-06-22T09:03:44;7.90;;;7.10;;
49412;SDS011;35493;50.276;9.372;2023-06-22T09:06:19;9.23;;;7.65;;
49412;SDS011;35493;50.276;9.372;2023-06-22T09:08:46;8.35;;;7.00;;
49412;SDS011;35493;50.276;9.372;2023-06-22T09:11:15;8.05;;;7.25;;
49412;SDS011;35493;50.276;9.372;2023-06-22T09:13:42;7.88;;;6.65;;
49412;SDS011;35493;50.276;9.372;2023-06-22T09:16:09;8.80;;;7.35;;
49412;SDS011;35493;50.276;9.372;2023-06-22T09:18:37;8.93;;;7.45;;
49412;SDS011;35493;50.276;9.372;2023-06-22T09:21:04;8.32;;;7.13;;
49412;SDS011;35493;50.276;9.372;2023-06-22T09:23:31;8.52;;;7.63;;
49412;SDS011;35493;50.276;9.372;2023-06-22T09:25:58;8.00;;;7.20;;
49412;SDS011;35493;50.276;9.372;2023-06-22T09:28:26;8.00;;;6.60;;
49412;SDS011;35493;50.276;9.372;2023-06-22T09:30:53;8.02;;;7.22;;
49412;SDS011;35493;50.276;9.372;2023-06-22T09:33:24;7.95;;;7.15;;
49412;SDS011;35493;50.276;9.372;2023-06-22T09:35:51;8.40;;;7.53;;
49412;SDS011;35493;50.276;9.372;2023-06-22T09:38:18;9.60;;;7.60;;
49412;SDS011;35493;50.276;9.372;2023-06-22T09:40:46;7.85;;;7.05;;
49412;SDS011;35493;50.276;9.372;2023-06-22T09:43:13;8.98;;;7.65;;
49412;SDS011;35493;50.276;9.372;2023-06-22T09:45:41;9.63;;;8.70;;
49412;SDS011;35493;50.276;9.372;2023-06-22T09:48:08;13.80;;;10.65;;
49412;SDS011;35493;50.276;9.372;2023-06-22T09:50:36;12.90;;;11.30;;
49412;SDS011;35493;50.276;9.372;2023-06-22T09:53:02;16.35;;;14.75;;
49412;SDS011;35493;50.276;9.372;2023-06-22T09:55:29;15.68;;;14.13;;
49412;SDS011;35493;50.276;9.372;2023-06-22T09:57:56;14.50;;;13.02;;
49412;SDS011;35493;50.276;9.372;2023-06-22T10:00:23;15.18;;;13.60;;
49412;SDS011;35493;50.276;9.372;2023-06-22T10:02:53;13.15;;;11.85;;
49412;SDS011;35493;50.276;9.372;2023-06-22T10:05:20;12.93;;;11.63;;
49412;SDS011;35493;50.276;9.372;2023-06-22T10:07:47;14.48;;;12.60;;
49412;SDS011;35493;50.276;9.372;2023-06-22T10:10:15;15.50;;;12.30;;
49412;SDS011;35493;50.276;9.372;2023-06-22T10:12:45;11.52;;;10.32;;
49412;SDS011;35493;50.276;9.372;2023-06-22T10:15:13;13.05;;;11.77;;
49412;SDS011;35493;50.276;9.372;2023-06-22T10:17:40;13.43;;;11.25;;
49412;SDS011;35493;50.276;9.372;2023-06-22T10:20:09;11.43;;;10.32;;
49412;SDS011;35493;50.276;9.372;2023-06-22T10:22:40;11.27;;;10.13;;
49412;SDS011;35493;50.276;9.372;2023-06-22T10:25:07;12.95;;;11.75;;
49412;SDS011;35493;50.276;9.372;2023-06-22T10:27:35;14.85;;;13.35;;
49412;SDS011;35493;50.276;9.372;2023-06-22T10:30:05;16.38;;;14.68;;
49412;SDS011;35493;50.276;9.372;2023-06-22T10:32:32;12.75;;;11.55;;
49412;SDS011;35493;50.276;9.372;2023-06-22T10:35:09;13.82;;;12.52;;
49412;SDS011;35493;50.276;9.372;2023-06-22T10:37:38;14.02;;;12.65;;
49412;SDS011;35493;50.276;9.372;2023-06-22T10:40:08;17.48;;;15.88;;
49412;SDS011;35493;50.276;9.372;2023-06-22T10:42:36;19.45;;;17.65;;
49412;SDS011;35493;50.276;9.372;2023-06-22T10:45:03;20.63;;;18.73;;
49412;SDS011;35493;50.276;9.372;2023-06-22T10:47:30;21.92;;;19.80;;
49412;SDS011;35493;50.276;9.372;2023-06-22T10:49:57;22.40;;;20.35;;
49412;SDS011;35493;50.276;9.372;2023-06-22T10:52:25;22.10;;;19.90;;
49412;SDS011;35493;50.276;9.372;2023-06-22T10:54:52;21.45;;;19.45;;
49412;SDS011;35493;50.276;9.372;2023-06-22T10:57:21;25.25;;;22.73;;
49412;SDS011;35493;50.276;9.372;2023-06-22T10:59:48;20.08;;;18.17;;
49412;SDS011;35493;50.276;9.372;2023-06-22T11:02:16;22.55;;;20.38;;
49412;SDS011;35493;50.276;9.372;2023-06-22T11:04:42;20.92;;;18.92;;
49412;SDS011;35493;50.276;9.372;2023-06-22T11:07:09;21.05;;;19.05;;
49412;SDS011;35493;50.276;9.372;2023-06-22T11:09:38;18.05;;;16.42;;
49412;SDS011;35493;50.276;9.372;2023-06-22T11:12:05;16.23;;;14.70;;
49412;SDS011;35493;50.276;9.372;2023-06-22T11:14:33;16.63;;;15.05;;
49412;SDS011;35493;50.276;9.372;2023-06-22T11:17:00;15.82;;;14.35;;
49412;SDS011;35493;50.276;9.372;2023-06-22T11:19:26;16.70;;;12.50;;
49412;SDS011;35493;50.276;9.372;2023-06-22T11:21:53;16.55;;;14.82;;
49412;SDS011;35493;50.276;9.372;2023-06-22T11:24:20;17.30;;;15.60;;
49412;SDS011;35493;50.276;9.372;2023-06-22T11:26:49;16.75;;;15.13;;
49412;SDS011;35493;50.276;9.372;2023-06-22T11:29:16;14.45;;;13.05;;
49412;SDS011;35493;50.276;9.372;2023-06-22T11:31:43;13.85;;;12.35;;
49412;SDS011;35493;50.276;9.372;2023-06-22T11:34:10;12.00;;;10.80;;
49412;SDS011;35493;50.276;9.372;2023-06-22T11:36:36;11.15;;;10.15;;
49412;SDS011;35493;50.276;9.372;2023-06-22T11:39:03;10.70;;;9.60;;
49412;SDS011;35493;50.276;9.372;2023-06-22T11:41:31;10.10;;;9.10;;
49412;SDS011;35493;50.276;9.372;2023-06-22T11:43:59;9.77;;;8.77;;
49412;SDS011;35493;50.276;9.372;2023-06-22T11:46:26;9.10;;;8.20;;
49412;SDS011;35493;50.276;9.372;2023-06-22T11:48:53;10.50;;;9.07;;
49412;SDS011;35493;50.276;9.372;2023-06-22T11:51:20;9.82;;;7.97;;
49412;SDS011;35493;50.276;9.372;2023-06-22T11:53:47;9.15;;;8.07;;
49412;SDS011;35493;50.276;9.372;2023-06-22T11:56:14;8.93;;;7.93;;
49412;SDS011;35493;50.276;9.372;2023-06-22T11:58:41;8.38;;;7.57;;
49412;SDS011;35493;50.276;9.372;2023-06-22T12:01:09;10.52;;;8.63;;
49412;SDS011;35493;50.276;9.372;2023-06-22T12:03:40;11.77;;;9.55;;
49412;SDS011;35493;50.276;9.372;2023-06-22T12:06:08;13.18;;;11.82;;
49412;SDS011;35493;50.276;9.372;2023-06-22T12:08:35;14.55;;;13.15;;
49412;SDS011;35493;50.276;9.372;2023-06-22T12:11:02;15.50;;;13.90;;
49412;SDS011;35493;50.276;9.372;2023-06-22T12:13:29;14.55;;;13.00;;
49412;SDS011;35493;50.276;9.372;2023-06-22T12:15:56;13.13;;;11.48;;
49412;SDS011;35493;50.276;9.372;2023-06-22T12:18:24;14.20;;;12.88;;
49412;SDS011;35493;50.276;9.372;2023-06-22T12:20:51;18.15;;;16.38;;
49412;SDS011;35493;50.276;9.372;2023-06-22T12:23:18;17.98;;;16.17;;
49412;SDS011;35493;50.276;9.372;2023-06-22T12:25:45;17.98;;;16.17;;
49412;SDS011;35493;50.276;9.372;2023-06-22T12:28:11;17.45;;;15.68;;
49412;SDS011;35493;50.276;9.372;2023-06-22T12:30:39;15.73;;;14.02;;
49412;SDS011;35493;50.276;9.372;2023-06-22T12:33:06;13.60;;;12.23;;
49412;SDS011;35493;50.276;9.372;2023-06-22T12:35:34;12.90;;;11.57;;
49412;SDS011;35493;50.276;9.372;2023-06-22T12:38:01;13.63;;;11.82;;
49412;SDS011;35493;50.276;9.372;2023-06-22T12:40:31;12.57;;;11.25;;
49412;SDS011;35493;50.276;9.372;2023-06-22T12:42:58;11.75;;;10.65;;
49412;SDS011;35493;50.276;9.372;2023-06-22T12:45:27;11.90;;;10.70;;
49412;SDS011;35493;50.276;9.372;2023-06-22T12:47:58;11.27;;;10.10;;
49412;SDS011;35493;50.276;9.372;2023-06-22T12:50:25;11.48;;;10.30;;
49412;SDS011;35493;50.276;9.372;2023-06-22T12:52:54;11.27;;;10.18;;
49412;SDS011;35493;50.276;9.372;2023-06-22T12:55:21;11.13;;;9.93;;
49412;SDS011;35493;50.276;9.372;2023-06-22T12:57:48;11.40;;;9.88;;
49412;SDS011;35493;50.276;9.372;2023-06-22T13:00:15;10.57;;;9.57;;
49412;SDS011;35493;50.276;9.372;2023-06-22T13:02:42;10.57;;;9.48;;
49412;SDS011;35493;50.276;9.372;2023-06-22T13:05:09;10.55;;;9.43;;
49412;SDS011;35493;50.276;9.372;2023-06-22T13:07:36;10.40;;;9.30;;
49412;SDS011;35493;50.276;9.372;2023-06-22T13:10:05;10.60;;;9.02;;
49412;SDS011;35493;50.276;9.372;2023-06-22T13:12:33;10.27;;;9.00;;
49412;SDS011;35493;50.276;9.372;2023-06-22T13:15:00;12.20;;;8.90;;
49412;SDS011;35493;50.276;9.372;2023-06-22T13:17:28;11.52;;;9.82;;
49412;SDS011;35493;50.276;9.372;2023-06-22T13:19:55;10.55;;;9.13;;
49412;SDS011;35493;50.276;9.372;2023-06-22T13:22:28;10.07;;;9.07;;
49412;SDS011;35493;50.276;9.372;2023-06-22T13:24:56;12.13;;;9.57;;
49412;SDS011;35493;50.276;9.372;2023-06-22T13:27:25;11.07;;;9.83;;
49412;SDS011;35493;50.276;9.372;2023-06-22T13:29:52;11.93;;;8.90;;
49412;SDS011;35493;50.276;9.372;2023-06-22T13:32:19;9.23;;;8.32;;
49412;SDS011;35493;50.276;9.372;2023-06-22T13:34:46;9.65;;;8.73;;
49412;SDS011;35493;50.276;9.372;2023-06-22T13:37:13;8.40;;;7.60;;
49412;SDS011;35493;50.276;9.372;2023-06-22T13:39:41;11.55;;;9.50;;
49412;SDS011;35493;50.276;9.372;2023-06-22T13:42:08;13.23;;;10.52;;
49412;SDS011;35493;50.276;9.372;2023-06-22T13:44:36;11.82;;;10.52;;
49412;SDS011;35493;50.276;9.372;2023-06-22T13:47:03;14.40;;;11.43;;
49412;SDS011;35493;50.276;9.372;2023-06-22T13:49:31;12.67;;;10.53;;
49412;SDS011;35493;50.276;9.372;2023-06-22T13:51:58;13.07;;;11.75;;
49412;SDS011;35493;50.276;9.372;2023-06-22T13:54:25;12.00;;;10.73;;
49412;SDS011;35493;50.276;9.372;2023-06-22T13:56:55;13.82;;;11.30;;
49412;SDS011;35493;50.276;9.372;2023-06-22T13:59:22;14.38;;;11.40;;
49412;SDS011;35493;50.276;9.372;2023-06-22T14:02:02;13.45;;;12.05;;
49412;SDS011;35493;50.276;9.372;2023-06-22T14:04:29;13.48;;;11.88;;
49412;SDS011;35493;50.276;9.372;2023-06-22T14:06:56;14.30;;;12.43;;
49412;SDS011;35493;50.276;9.372;2023-06-22T14:09:23;13.70;;;11.15;;
49412;SDS011;35493;50.276;9.372;2023-06-22T14:11:50;13.48;;;11.45;;
49412;SDS011;35493;50.276;9.372;2023-06-22T14:14:17;12.60;;;11.23;;
49412;SDS011;35493;50.276;9.372;2023-06-22T14:16:44;13.90;;;10.65;;
49412;SDS011;35493;50.276;9.372;2023-06-22T14:19:16;11.23;;;8.73;;
49412;SDS011;35493;50.276;9.372;2023-06-22T14:21:52;13.18;;;9.43;;
49412;SDS011;35493;50.276;9.372;2023-06-22T14:24:19;11.10;;;9.57;;
49412;SDS011;35493;50.276;9.372;2023-06-22T14:26:47;10.57;;;8.55;;
49412;SDS011;35493;50.276;9.372;2023-06-22T14:29:14;10.10;;;7.90;;
49412;SDS011;35493;50.276;9.372;2023-06-22T14:31:44;11.00;;;8.07;;
49412;SDS011;35493;50.276;9.372;2023-06-22T14:34:18;9.25;;;7.78;;
49412;SDS011;35493;50.276;9.372;2023-06-22T14:36:45;9.55;;;7.78;;
49412;SDS011;35493;50.276;9.372;2023-06-22T14:39:12;12.45;;;8.43;;
49412;SDS011;35493;50.276;9.372;2023-06-22T14:41:39;9.13;;;7.75;;
49412;SDS011;35493;50.276;9.372;2023-06-22T14:44:09;9.70;;;7.95;;